Time;durP1;ratioP1;P1;durP2;ratioP2;P2;SDS_P1;SDS_P2;PMS_P1;PMS_P2;Temp;Humidity;BMP_temperature;BMP_pressure;BME280_temperature;BME280_humidity;BME280_pressure;Samples;Min_cycle;Max_cycle;Signal;HPM_P1;HPM_P2
2021/12/23 00:02:07;;;;;;;21.47;11.73;;;;;;;-3.83;70.82;98113.56;5060102;28;20212;-71
2021/12/23 00:04:34;;;;;;;19.23;10.30;;;;;;;-4.04;71.72;98110.44;5058403;28;20192;-69
2021/12/23 00:07:01;;;;;;;21.73;11.27;;;;;;;-3.90;71.48;98115.06;5046015;28;20198;-74
2021/12/23 00:09:55;;;;;;;23.40;12.83;;;;;;;-3.79;71.31;98111.13;5046318;28;20204;-66
2021/12/23 00:12:16;;;;;;;23.37;11.83;;;;;;;-3.67;70.94;98108.09;5045811;28;20558;-68
2021/12/23 00:14:45;;;;;;;24.27;12.70;;;;;;;-3.43;70.60;98111.25;5045857;28;20194;-69
2021/12/23 00:17:27;;;;;;;27.50;14.23;;;;;;;-3.33;70.27;98116.59;5045897;28;20282;-68
2021/12/23 00:25:19;;;;;;;22.27;12.47;;;;;;;-3.25;69.15;98109.16;5051091;28;20205;-69
2021/12/23 00:27:46;;;;;;;25.50;13.60;;;;;;;-3.34;69.18;98099.66;5065602;28;20292;-67
2021/12/23 00:30:14;;;;;;;24.97;13.57;;;;;;;-3.33;69.02;98121.66;5065684;28;20668;-64
2021/12/23 00:32:41;;;;;;;27.23;13.67;;;;;;;-3.20;69.30;98111.81;5064496;28;20251;-69
2021/12/23 00:35:09;;;;;;;24.63;13.37;;;;;;;-3.25;69.20;98116.75;5066077;28;20220;-71
2021/12/23 00:37:43;;;;;;;28.30;13.77;;;;;;;-3.48;69.02;98121.25;5065580;28;20240;-71
2021/12/23 00:40:12;;;;;;;24.80;13.87;;;;;;;-3.60;69.61;98107.41;5064459;28;20188;-70
2021/12/23 00:42:40;;;;;;;22.60;13.27;;;;;;;-3.71;70.38;98116.41;5023179;28;1210581;-69
2021/12/23 00:45:08;;;;;;;23.80;13.03;;;;;;;-3.75;70.82;98115.47;5066633;28;20185;-71
2021/12/23 00:47:35;;;;;;;27.13;14.20;;;;;;;-3.92;71.12;98099.00;5066698;28;20198;-67
2021/12/23 00:50:03;;;;;;;29.37;14.67;;;;;;;-3.99;70.98;98104.69;5066421;28;20193;-70
2021/12/23 00:52:36;;;;;;;28.77;14.33;;;;;;;-3.94;71.42;98102.28;5066464;28;20241;-67
2021/12/23 00:55:05;;;;;;;25.13;13.67;;;;;;;-3.87;71.42;98105.00;5066297;28;20716;-64
2021/12/23 00:57:37;;;;;;;26.07;14.63;;;;;;;-3.97;71.66;98105.56;5066548;28;20288;-67
2021/12/23 01:00:07;;;;;;;26.13;12.27;;;;;;;-3.97;72.26;98098.00;5066281;28;20277;-69
2021/12/23 01:02:35;;;;;;;28.53;13.50;;;;;;;-3.82;71.40;98103.47;5066296;28;20231;-72
2021/12/23 01:05:04;;;;;;;25.83;14.47;;;;;;;-3.85;71.48;98095.78;5066241;28;20193;-68
2021/12/23 01:07:31;;;;;;;26.07;14.33;;;;;;;-3.97;71.19;98098.00;5066171;28;20187;-74
2021/12/23 01:09:58;;;;;;;24.00;13.17;;;;;;;-3.97;71.69;98094.59;5066365;28;20708;-69
2021/12/23 01:12:30;;;;;;;23.80;12.47;;;;;;;-4.13;72.28;98095.84;5066149;28;20185;-67
2021/12/23 01:15:10;;;;;;;22.60;13.13;;;;;;;-4.47;73.10;98081.41;5066115;28;20274;-71
2021/12/23 01:17:55;;;;;;;21.07;12.10;;;;;;;-4.55;74.05;98089.56;5066174;28;20197;-70
2021/12/23 01:20:30;;;;;;;24.00;10.50;;;;;;;-4.73;74.17;98094.94;5066147;28;20200;-69
2021/12/23 01:23:10;;;;;;;21.63;10.80;;;;;;;-4.63;74.60;98101.09;5066199;28;20668;-70
2021/12/23 01:25:38;;;;;;;18.33;10.80;;;;;;;-4.78;73.94;98095.63;5066028;28;20254;-69
2021/12/23 01:28:07;;;;;;;21.13;10.83;;;;;;;-4.99;75.35;98093.28;5064719;28;20572;-71
2021/12/23 01:30:39;;;;;;;20.50;9.67;;;;;;;-5.11;75.23;98097.97;5065782;28;20267;-70
2021/12/23 01:33:08;;;;;;;18.80;9.87;;;;;;;-5.26;76.28;98088.22;5065883;28;20718;-72
2021/12/23 01:35:37;;;;;;;13.97;8.10;;;;;;;-5.23;76.35;98098.41;5066140;28;20440;-68
2021/12/23 01:38:05;;;;;;;16.43;9.37;;;;;;;-5.33;76.33;98098.06;5065842;28;21033;-75
2021/12/23 01:40:33;;;;;;;16.13;8.57;;;;;;;-5.41;77.13;98090.25;5065934;28;20958;-67
2021/12/23 01:43:00;;;;;;;22.37;10.37;;;;;;;-5.42;77.55;98087.69;5066499;28;20470;-66
2021/12/23 01:45:32;;;;;;;20.23;9.63;;;;;;;-5.28;76.52;98088.97;5069388;28;20622;-70
2021/12/23 01:48:01;;;;;;;18.40;9.67;;;;;;;-5.36;76.75;98087.88;5069192;28;20443;-70
2021/12/23 01:50:29;;;;;;;14.40;7.80;;;;;;;-5.44;76.73;98091.81;5069578;28;20443;-67
2021/12/23 01:52:59;;;;;;;15.87;9.30;;;;;;;-5.42;77.30;98093.56;5069724;28;20486;-73
2021/12/23 01:55:28;;;;;;;15.13;8.03;;;;;;;-5.59;76.92;98081.22;5069896;28;20450;-73
2021/12/23 01:57:57;;;;;;;13.10;7.60;;;;;;;-5.56;76.33;98099.81;5069225;28;20526;-75
2021/12/23 02:00:28;;;;;;;15.47;7.80;;;;;;;-5.59;76.63;98096.34;5068094;28;20914;-68
2021/12/23 02:02:56;;;;;;;16.07;8.30;;;;;;;-5.45;77.34;98092.63;5067883;28;20480;-69
2021/12/23 02:05:24;;;;;;;15.63;8.20;;;;;;;-5.51;76.47;98078.13;5069297;28;20462;-71
2021/12/23 02:07:52;;;;;;;13.13;9.00;;;;;;;-5.47;76.49;98079.97;5068928;28;20933;-72
2021/12/23 02:10:19;;;;;;;16.00;8.93;;;;;;;-5.42;76.66;98092.72;5069109;28;20988;-70
2021/12/23 02:12:48;;;;;;;18.07;9.23;;;;;;;-5.49;76.18;98079.06;5068802;28;21027;-66
2021/12/23 02:15:17;;;;;;;14.17;7.87;;;;;;;-5.54;77.32;98080.53;5068751;28;20435;-69
2021/12/23 02:17:46;;;;;;;16.13;9.70;;;;;;;-5.54;76.96;98088.13;5068775;28;20536;-67
2021/12/23 02:20:15;;;;;;;16.80;8.93;;;;;;;-5.75;77.80;98084.03;5067569;28;20443;-67
2021/12/23 02:22:43;;;;;;;14.67;7.80;;;;;;;-5.73;77.19;98085.81;5069142;28;20508;-67
2021/12/23 02:25:11;;;;;;;17.80;7.90;;;;;;;-5.72;77.61;98084.97;5069145;28;20435;-70
2021/12/23 02:27:39;;;;;;;15.43;8.20;;;;;;;-5.76;77.24;98085.69;5068824;28;21133;-69
2021/12/23 02:30:10;;;;;;;17.80;8.50;;;;;;;-5.78;77.66;98082.25;5068452;28;20530;-70
2021/12/23 02:32:39;;;;;;;14.77;8.20;;;;;;;-5.74;77.95;98094.16;5068434;28;20538;-72
2021/12/23 02:35:09;;;;;;;19.67;9.37;;;;;;;-5.77;77.93;98086.50;5068360;28;20493;-74
2021/12/23 02:37:37;;;;;;;15.30;8.57;;;;;;;-5.74;77.62;98080.69;5068269;28;20447;-71
2021/12/23 02:40:05;;;;;;;16.57;9.80;;;;;;;-5.63;77.67;98089.50;5068700;28;20489;-68
2021/12/23 02:42:32;;;;;;;21.13;11.00;;;;;;;-5.62;77.92;98083.63;5068399;28;20431;-69
2021/12/23 02:44:59;;;;;;;21.10;10.67;;;;;;;-5.65;76.81;98086.91;5068482;28;20964;-68
2021/12/23 02:47:28;;;;;;;23.43;11.70;;;;;;;-5.65;77.80;98083.53;5068326;28;20443;-77
2021/12/23 02:49:55;;;;;;;19.97;10.43;;;;;;;-5.58;77.69;98091.34;5068335;28;20471;-75
2021/12/23 02:52:22;;;;;;;19.73;11.33;;;;;;;-5.41;77.52;98085.19;5067120;28;20837;-70
2021/12/23 02:54:56;;;;;;;20.97;9.97;;;;;;;-5.29;76.97;98077.16;5067224;28;20544;-78
2021/12/23 02:57:24;;;;;;;16.30;8.87;;;;;;;-5.18;75.67;98054.00;5068377;28;20450;-75
2021/12/23 02:59:51;;;;;;;24.17;11.40;;;;;;;-4.93;74.70;98072.41;5068224;28;20439;-76
2021/12/23 03:02:19;;;;;;;22.53;10.83;;;;;;;-4.82;74.36;98081.19;5068114;28;20463;-72
2021/12/23 03:04:46;;;;;;;22.97;12.77;;;;;;;-4.78;73.80;98080.47;5068102;28;20242;-70
2021/12/23 03:07:14;;;;;;;21.43;10.73;;;;;;;-4.82;73.81;98076.13;5066673;28;20454;-74
2021/12/23 03:09:46;;;;;;;18.93;11.20;;;;;;;-4.98;74.37;98068.06;5067956;28;20680;-75
2021/12/23 03:12:13;;;;;;;19.53;10.80;;;;;;;-5.09;74.43;98073.63;5067925;28;20204;-74
2021/12/23 03:14:40;;;;;;;25.97;12.07;;;;;;;-5.48;76.39;98063.09;5068103;28;20483;-67
2021/12/23 03:17:08;;;;;;;23.40;11.10;;;;;;;-5.69;77.29;98082.59;5067646;28;20822;-76
2021/12/23 03:19:35;;;;;;;29.80;11.27;;;;;;;-5.70;78.00;98080.84;5067725;28;20428;-75
2021/12/23 03:22:02;;;;;;;22.70;9.63;;;;;;;-5.58;77.91;98086.31;5067575;28;20431;-73
2021/12/23 03:24:29;;;;;;;24.87;11.60;;;;;;;-5.36;76.56;98086.22;5067417;28;20496;-63
2021/12/23 03:26:56;;;;;;;19.57;10.13;;;;;;;-5.17;75.59;98100.25;5067470;28;20830;-68
2021/12/23 03:29:23;;;;;;;18.37;10.80;;;;;;;-5.00;75.62;98092.41;5067458;28;21033;-72
2021/12/23 03:31:50;;;;;;;17.63;10.67;;;;;;;-4.98;75.55;98093.31;5067610;28;20543;-70
2021/12/23 03:34:18;;;;;;;21.00;11.53;;;;;;;-4.95;74.24;98082.47;5067356;28;20536;-72
2021/12/23 03:36:45;;;;;;;21.87;11.60;;;;;;;-5.33;74.84;98083.78;5067445;28;20981;-76
2021/12/23 03:39:12;;;;;;;20.80;12.00;;;;;;;-5.56;76.22;98084.69;5066162;28;20472;-73
2021/12/23 03:41:39;;;;;;;17.83;10.87;;;;;;;-5.67;76.71;98086.00;5067702;28;20526;-75
2021/12/23 03:44:07;;;;;;;20.40;11.00;;;;;;;-5.68;76.88;98084.28;5067327;28;20481;-74
2021/12/23 03:46:37;;;;;;;24.20;11.57;;;;;;;-5.63;76.84;98092.88;5067097;28;20439;-65
2021/12/23 03:49:08;;;;;;;18.60;9.40;;;;;;;-5.50;77.11;98102.53;5067368;28;20443;-71
2021/12/23 03:51:37;;;;;;;16.67;9.27;;;;;;;-5.34;75.55;98082.09;5067104;28;21004;-73
2021/12/23 03:54:04;;;;;;;20.03;10.03;;;;;;;-5.30;75.15;98086.41;5067105;28;20474;-71
2021/12/23 03:56:32;;;;;;;20.63;10.43;;;;;;;-5.38;75.78;98097.91;5067048;28;20447;-75
2021/12/23 03:58:59;;;;;;;19.13;9.43;;;;;;;-5.51;76.45;98115.97;5066948;28;20443;-71
2021/12/23 04:01:28;;;;;;;19.93;10.60;;;;;;;-5.54;76.85;98113.34;5067105;28;20436;-70
2021/12/23 04:03:55;;;;;;;14.53;8.70;;;;;;;-5.45;77.24;98111.13;5066795;28;20434;-75
2021/12/23 04:06:23;;;;;;;23.60;9.23;;;;;;;-5.38;76.40;98099.59;5067023;28;20466;-65
2021/12/23 04:08:50;;;;;;;19.30;10.73;;;;;;;-5.19;76.54;98110.31;5066904;28;20439;-70
2021/12/23 04:11:17;;;;;;;19.87;9.47;;;;;;;-5.25;75.71;98107.59;5067012;28;20983;-66
2021/12/23 04:13:44;;;;;;;38.60;11.37;;;;;;;-5.46;76.39;98111.09;5066823;28;20483;-65
2021/12/23 04:16:11;;;;;;;25.63;11.17;;;;;;;-5.70;76.93;98100.16;5064714;28;20451;-71
2021/12/23 04:18:38;;;;;;;17.97;10.23;;;;;;;-5.62;76.35;98114.75;5066871;28;20816;-72
2021/12/23 04:21:05;;;;;;;23.10;11.20;;;;;;;-5.63;77.29;98117.22;5064031;28;20990;-73
2021/12/23 04:23:33;;;;;;;22.33;11.40;;;;;;;-5.66;76.74;98112.06;5046781;28;20471;-72
2021/12/23 04:26:01;;;;;;;26.40;11.23;;;;;;;-5.68;77.14;98112.03;5049181;28;20451;-65
2021/12/23 04:28:29;;;;;;;17.77;10.67;;;;;;;-5.56;76.59;98111.59;5065313;28;20785;-71
2021/12/23 04:30:56;;;;;;;20.87;10.93;;;;;;;-5.37;76.64;98118.94;5066430;28;20443;-72
2021/12/23 04:33:23;;;;;;;24.93;12.37;;;;;;;-5.27;76.07;98105.81;5058532;28;20427;-68
2021/12/23 04:35:50;;;;;;;30.10;13.00;;;;;;;-5.06;75.34;98114.97;5048142;28;21069;-67
2021/12/23 04:38:17;;;;;;;38.27;17.17;;;;;;;-4.99;74.45;98118.53;5065158;28;20443;-75
2021/12/23 04:40:44;;;;;;;45.57;22.03;;;;;;;-4.92;74.16;98122.13;5066804;28;20489;-74
2021/12/23 04:43:12;;;;;;;52.87;22.53;;;;;;;-4.90;74.42;98116.28;5066439;28;20479;-76
2021/12/23 04:45:39;;;;;;;43.33;20.93;;;;;;;-4.93;74.49;98121.25;5066429;28;20466;-68
2021/12/23 04:48:06;;;;;;;37.27;17.90;;;;;;;-4.89;74.20;98122.19;5066404;28;20217;-70
2021/12/23 04:50:33;;;;;;;32.73;16.73;;;;;;;-5.11;74.43;98113.94;5066500;28;20439;-69
2021/12/23 04:53:00;;;;;;;28.50;17.37;;;;;;;-5.22;74.09;98112.75;5066210;28;20549;-72
2021/12/23 04:55:28;;;;;;;32.33;14.67;;;;;;;-5.13;74.53;98133.22;5064770;28;20216;-74
2021/12/23 04:57:56;;;;;;;29.77;13.27;;;;;;;-5.32;74.39;98122.50;5066548;28;20672;-71
2021/12/23 05:00:24;;;;;;;25.57;13.40;;;;;;;-5.37;75.80;98137.47;5059902;28;20211;-72
2021/12/23 05:02:51;;;;;;;28.57;14.53;;;;;;;-5.37;76.10;98119.81;5046965;28;20436;-71
2021/12/23 05:05:19;;;;;;;26.33;14.13;;;;;;;-5.43;74.95;98124.66;5046177;28;20436;-75
2021/12/23 05:07:48;;;;;;;26.00;13.90;;;;;;;-5.51;75.88;98133.66;5059507;28;20478;-69
2021/12/23 05:10:16;;;;;;;26.77;13.07;;;;;;;-5.62;76.46;98132.41;5065427;28;20467;-73
2021/12/23 05:12:45;;;;;;;21.40;12.73;;;;;;;-5.52;76.92;98131.91;5065657;28;20515;-73
2021/12/23 05:15:18;;;;;;;21.20;11.30;;;;;;;-5.49;76.29;98141.25;5066036;28;20475;-71
2021/12/23 05:17:48;;;;;;;19.63;10.63;;;;;;;-5.55;76.45;98131.81;5066772;28;20466;-72
2021/12/23 05:20:18;;;;;;;19.57;10.93;;;;;;;-5.65;76.72;98118.84;5069964;28;20185;-67
2021/12/23 05:22:46;;;;;;;22.60;12.13;;;;;;;-5.58;76.56;98121.63;5069688;28;20869;-76
2021/12/23 05:25:13;;;;;;;21.63;12.10;;;;;;;-5.59;76.41;98135.06;5069638;28;20534;-73
2021/12/23 05:27:41;;;;;;;25.90;12.87;;;;;;;-5.66;76.74;98138.16;5069589;28;20438;-71
2021/12/23 05:30:11;;;;;;;22.33;10.70;;;;;;;-5.74;76.97;98132.00;5058526;28;20443;-77
2021/12/23 05:32:39;;;;;;;20.97;10.80;;;;;;;-5.70;76.53;98132.94;5060710;28;20458;-69
2021/12/23 05:35:06;;;;;;;24.37;10.53;;;;;;;-5.64;76.78;98133.16;5069426;28;20483;-68
2021/12/23 05:37:34;;;;;;;21.30;10.13;;;;;;;-5.68;76.08;98124.63;5053809;28;20982;-74
2021/12/23 05:40:01;;;;;;;19.40;9.50;;;;;;;-5.68;75.96;98134.72;5047932;28;20497;-74
2021/12/23 05:42:29;;;;;;;19.03;9.87;;;;;;;-5.59;76.59;98139.22;5049141;28;20440;-68
2021/12/23 05:44:56;;;;;;;20.67;10.23;;;;;;;-5.41;76.05;98129.75;5049363;28;20468;-64
2021/12/23 05:47:23;;;;;;;19.53;10.37;;;;;;;-5.36;75.44;98143.41;5048667;28;20444;-67
2021/12/23 05:49:51;;;;;;;33.63;17.27;;;;;;;-5.34;75.44;98145.16;5049003;28;20471;-72
2021/12/23 05:52:18;;;;;;;34.40;18.20;;;;;;;-5.62;75.49;98139.97;5049353;28;20217;-70
2021/12/23 05:54:45;;;;;;;30.23;14.70;;;;;;;-5.83;75.94;98146.78;5049377;28;20475;-68
2021/12/23 05:57:12;;;;;;;21.47;12.27;;;;;;;-6.04;77.33;98124.22;5049043;28;20429;-68
2021/12/23 05:59:39;;;;;;;19.87;11.93;;;;;;;-5.98;76.96;98142.13;5047747;28;20540;-70
2021/12/23 06:02:07;;;;;;;20.73;10.17;;;;;;;-6.18;77.32;98142.22;5064255;28;20445;-67
2021/12/23 06:04:35;;;;;;;17.50;9.30;;;;;;;-6.21;77.94;98153.03;5047663;28;20439;-68
2021/12/23 06:07:03;;;;;;;19.67;9.07;;;;;;;-6.25;77.78;98142.78;5049103;28;20551;-71
2021/12/23 06:09:30;;;;;;;17.73;8.87;;;;;;;-6.01;77.47;98154.59;5048850;28;20752;-68
2021/12/23 06:11:57;;;;;;;15.17;9.17;;;;;;;-5.87;76.25;98152.56;5048788;28;20450;-70
2021/12/23 06:14:24;;;;;;;19.73;9.67;;;;;;;-5.88;76.14;98158.44;5048507;28;20946;-66
2021/12/23 06:16:51;;;;;;;21.53;12.03;;;;;;;-5.88;76.22;98156.78;5048537;28;20959;-67
2021/12/23 06:19:18;;;;;;;21.60;12.60;;;;;;;-5.89;75.95;98155.03;5047207;28;20441;-66
2021/12/23 06:21:45;;;;;;;23.97;12.43;;;;;;;-5.66;76.55;98160.84;5047339;28;20444;-67
2021/12/23 06:24:12;;;;;;;20.17;10.90;;;;;;;-5.43;75.56;98156.59;5048771;28;20519;-64
2021/12/23 06:26:39;;;;;;;23.93;12.37;;;;;;;-5.43;74.77;98152.41;5048414;28;20443;-65
2021/12/23 06:29:07;;;;;;;24.47;13.13;;;;;;;-5.29;74.76;98155.41;5048418;28;20527;-67
2021/12/23 06:31:34;;;;;;;25.30;14.30;;;;;;;-5.13;73.63;98148.38;5047932;28;20494;-67
2021/12/23 06:34:01;;;;;;;28.47;14.77;;;;;;;-4.95;73.12;98153.19;5048076;28;20603;-66
2021/12/23 06:36:28;;;;;;;28.33;13.87;;;;;;;-4.99;72.67;98158.94;5048511;28;20468;-69
2021/12/23 06:38:56;;;;;;;25.60;12.87;;;;;;;-4.95;72.58;98153.19;5048282;28;20461;-69
2021/12/23 06:41:23;;;;;;;21.97;13.17;;;;;;;-5.07;73.38;98152.78;5063945;28;20469;-69
2021/12/23 06:43:50;;;;;;;27.60;12.50;;;;;;;-5.23;73.73;98161.50;5048332;28;20468;-65
2021/12/23 06:46:17;;;;;;;25.43;12.77;;;;;;;-5.41;74.30;98150.81;5048608;28;20209;-65
2021/12/23 06:48:44;;;;;;;25.93;12.83;;;;;;;-5.26;74.38;98166.47;5048731;28;20669;-68
2021/12/23 06:51:11;;;;;;;30.03;14.93;;;;;;;-5.24;74.56;98158.94;5051988;28;20911;-66
2021/12/23 06:53:39;;;;;;;32.90;14.20;;;;;;;-5.26;75.21;98156.38;5054302;28;20225;-72
2021/12/23 06:56:06;;;;;;;26.33;14.17;;;;;;;-5.39;75.19;98154.25;5054512;28;20483;-66
2021/12/23 06:58:35;;;;;;;29.93;12.87;;;;;;;-5.32;75.64;98150.25;5052205;28;20448;-72
2021/12/23 07:01:02;;;;;;;29.00;11.97;;;;;;;-5.23;75.84;98158.97;5047839;28;20449;-70
2021/12/23 07:03:48;;;;;;;22.23;12.17;;;;;;;-5.03;76.39;98150.38;5049583;28;20298;-73
2021/12/23 07:06:20;;;;;;;28.13;14.83;;;;;;;-5.05;75.42;98153.69;5048927;28;20819;-69
2021/12/23 07:08:47;;;;;;;27.07;12.77;;;;;;;-4.98;75.68;98148.88;5048876;28;20531;-70
2021/12/23 07:11:15;;;;;;;23.97;12.87;;;;;;;-4.98;75.99;98153.94;5048487;28;20182;-68
2021/12/23 07:13:42;;;;;;;25.97;13.00;;;;;;;-4.93;76.36;98164.19;5048924;28;21028;-69
2021/12/23 07:16:12;;;;;;;26.57;13.60;;;;;;;-4.90;76.30;98160.91;5047701;28;20515;-69
2021/12/23 07:18:41;;;;;;;18.97;10.27;;;;;;;-5.03;76.90;98154.59;5047160;28;20452;-78
2021/12/23 07:21:08;;;;;;;26.80;12.30;;;;;;;-4.86;77.32;98157.66;5047516;28;20218;-69
2021/12/23 07:23:35;;;;;;;17.13;11.30;;;;;;;-4.66;77.38;98161.66;5029351;28;20212;-69
2021/12/23 07:26:02;;;;;;;19.57;10.00;;;;;;;-4.57;76.10;98164.47;5062140;28;20201;-66
2021/12/23 07:28:29;;;;;;;20.43;10.33;;;;;;;-4.38;76.33;98166.75;5045805;28;20198;-70
2021/12/23 07:30:56;;;;;;;16.87;8.03;;;;;;;-4.51;75.17;98174.75;5046861;28;20451;-71
2021/12/23 07:33:23;;;;;;;17.07;10.13;;;;;;;-4.60;74.90;98164.38;5045824;28;20200;-73
2021/12/23 07:35:50;;;;;;;20.47;10.50;;;;;;;-4.46;75.18;98170.72;5046597;28;20232;-69
2021/12/23 07:38:18;;;;;;;19.23;9.80;;;;;;;-4.39;74.05;98168.41;5046812;28;20535;-71
2021/12/23 07:40:46;;;;;;;17.77;8.83;;;;;;;-4.50;73.32;98148.69;5046351;28;20669;-71
2021/12/23 07:43:44;;;;;;;14.17;8.07;;;;;;;-4.35;72.79;98164.31;5046515;28;20537;-74
2021/12/23 07:46:11;;;;;;;19.27;9.03;;;;;;;-3.97;72.96;98168.81;5046825;28;20731;-75
2021/12/23 07:48:40;;;;;;;12.17;7.20;;;;;;;-3.86;71.44;98174.19;5044898;28;20434;-74
2021/12/23 07:51:08;;;;;;;16.23;8.93;;;;;;;-3.73;71.14;98169.50;5044875;28;20202;-72
2021/12/23 07:53:35;;;;;;;16.30;9.13;;;;;;;-3.61;71.16;98164.78;5046509;28;20186;-69
2021/12/23 07:56:03;;;;;;;19.87;10.27;;;;;;;-3.43;71.02;98172.00;5046385;28;20221;-77
2021/12/23 07:58:32;;;;;;;17.60;11.17;;;;;;;-3.24;71.09;98171.69;5061632;28;20694;-75
2021/12/23 08:00:59;;;;;;;17.67;10.43;;;;;;;-3.22;70.84;98164.09;5046266;28;20649;-72
2021/12/23 08:03:26;;;;;;;19.60;9.27;;;;;;;-3.08;69.78;98150.13;5045079;28;20190;-72
2021/12/23 08:05:53;;;;;;;16.47;8.80;;;;;;;-2.87;68.53;98168.38;5045138;28;20196;-75
2021/12/23 08:08:20;;;;;;;15.57;9.83;;;;;;;-2.70;68.23;98157.81;5046377;28;20717;-68
2021/12/23 08:10:50;;;;;;;16.53;10.30;;;;;;;-2.53;68.37;98161.59;5044772;28;20272;-71
2021/12/23 08:13:18;;;;;;;18.47;10.40;;;;;;;-2.36;67.37;98172.13;5046156;28;20823;-68
2021/12/23 08:15:45;;;;;;;15.80;8.83;;;;;;;-2.44;65.84;98166.03;5044965;28;20232;-74
2021/12/23 08:18:13;;;;;;;15.10;8.40;;;;;;;-2.48;66.86;98174.41;5046041;28;20203;-69
2021/12/23 08:20:41;;;;;;;17.53;9.10;;;;;;;-2.43;66.82;98177.88;5045998;28;20203;-69
2021/12/23 08:23:09;;;;;;;14.60;8.90;;;;;;;-2.35;65.88;98166.25;5044527;28;20183;-74
2021/12/23 08:25:36;;;;;;;18.40;9.43;;;;;;;-2.36;66.25;98168.72;5045897;28;20251;-75
2021/12/23 08:28:04;;;;;;;20.00;9.87;;;;;;;-2.40;66.52;98170.34;5028384;28;20268;-68
2021/12/23 08:30:34;;;;;;;21.60;12.47;;;;;;;-2.31;66.67;98173.09;5028045;28;20660;-71
2021/12/23 08:33:02;;;;;;;16.73;9.73;;;;;;;-2.25;65.56;98164.78;5046142;28;20503;-70
2021/12/23 08:35:29;;;;;;;14.20;9.93;;;;;;;-2.43;65.36;98121.25;5046035;28;20253;-75
2021/12/23 08:37:56;;;;;;;21.63;10.37;;;;;;;-2.07;65.66;98148.25;5046229;28;20192;-74
2021/12/23 08:40:25;;;;;;;20.97;10.37;;;;;;;-1.86;65.41;98158.00;5045789;28;20217;-71
2021/12/23 08:42:56;;;;;;;24.30;12.13;;;;;;;-1.64;64.72;98147.44;5044390;28;20668;-72
2021/12/23 08:45:25;;;;;;;23.73;12.37;;;;;;;-1.40;64.22;98155.50;5044570;28;20303;-70
2021/12/23 08:47:54;;;;;;;20.37;11.37;;;;;;;-1.43;64.43;98145.31;5045807;28;20214;-71
2021/12/23 08:50:31;;;;;;;21.57;13.70;;;;;;;-1.18;63.16;98144.94;5045958;28;20263;-71
2021/12/23 08:52:59;;;;;;;21.63;12.13;;;;;;;-1.05;63.20;98143.47;5046747;28;20196;-77
2021/12/23 08:55:31;;;;;;;20.47;11.23;;;;;;;-0.84;62.20;98131.94;5049876;28;20611;-70
2021/12/23 08:58:03;;;;;;;23.87;11.57;;;;;;;-0.75;61.59;98127.84;5048237;28;20828;-68
2021/12/23 09:00:33;;;;;;;22.30;12.63;;;;;;;-0.77;61.87;98122.72;5058764;28;20200;-67
2021/12/23 09:03:01;;;;;;;26.70;10.93;;;;;;;-0.67;60.99;98119.50;5063689;28;20283;-66
2021/12/23 09:05:30;;;;;;;26.67;13.40;;;;;;;-0.66;60.32;98112.72;5059958;28;20199;-70
2021/12/23 09:07:57;;;;;;;21.73;14.03;;;;;;;-0.74;60.35;98099.88;5069687;28;20193;-70
2021/12/23 09:10:24;;;;;;;19.43;11.10;;;;;;;-0.51;59.87;98108.72;5052678;28;20313;-71
2021/12/23 09:12:52;;;;;;;17.93;9.73;;;;;;;-0.31;58.15;98103.91;5048305;28;20257;-73
2021/12/23 09:15:20;;;;;;;16.73;10.33;;;;;;;-0.29;58.59;98098.00;5031379;28;21106;-73
2021/12/23 09:17:47;;;;;;;29.50;15.40;;;;;;;-0.26;58.29;98090.41;5048175;28;20267;-72
2021/12/23 09:20:18;;;;;;;21.13;11.40;;;;;;;-0.19;58.38;98097.31;5047553;28;20925;-71
2021/12/23 09:22:50;;;;;;;18.23;9.73;;;;;;;-0.29;58.29;98100.53;5049379;28;20216;-76
2021/12/23 09:25:29;;;;;;;30.33;12.60;;;;;;;-0.39;59.23;98093.63;5050090;28;20276;-76
2021/12/23 09:33:26;;;;;;;10.60;6.90;;;;;;;-0.30;56.35;98077.63;5062299;28;20292;-73
2021/12/23 09:35:53;;;;;;;13.20;7.03;;;;;;;-0.33;56.32;98075.88;5048763;28;20220;-74
2021/12/23 09:38:27;;;;;;;11.13;7.07;;;;;;;-0.30;56.87;98082.72;5049662;28;20709;-71
2021/12/23 09:41:05;;;;;;;11.83;6.60;;;;;;;-0.02;56.43;98085.63;5030699;28;20193;-72
2021/12/23 09:43:34;;;;;;;13.30;6.57;;;;;;;0.03;56.26;98080.59;5046999;28;20732;-68
2021/12/23 09:46:02;;;;;;;21.90;10.03;;;;;;;-0.02;56.51;98069.47;5046754;28;20240;-70
2021/12/23 09:48:30;;;;;;;20.50;11.00;;;;;;;0.14;57.20;98071.41;5047950;28;20228;-67
2021/12/23 09:51:00;;;;;;;18.00;8.87;;;;;;;0.18;56.00;98069.72;5048618;28;20193;-72
2021/12/23 09:53:30;;;;;;;15.67;7.97;;;;;;;0.28;57.84;98069.84;5048550;28;20224;-73
2021/12/23 09:55:58;;;;;;;14.03;7.77;;;;;;;0.35;56.94;98063.13;5049002;28;20225;-68
2021/12/23 09:58:26;;;;;;;16.73;7.57;;;;;;;0.38;56.47;98056.38;5030234;28;20197;-70
2021/12/23 10:00:54;;;;;;;16.63;8.30;;;;;;;0.36;56.43;98047.00;5048298;28;20242;-68
2021/12/23 10:03:23;;;;;;;10.63;6.33;;;;;;;0.40;56.05;98047.06;5046512;28;20189;-70
2021/12/23 10:05:51;;;;;;;13.97;7.27;;;;;;;0.28;55.54;98025.69;5047939;28;20189;-66
2021/12/23 10:08:19;;;;;;;11.07;6.47;;;;;;;0.49;55.29;98039.50;5046613;28;20202;-66
2021/12/23 10:10:55;;;;;;;10.10;6.33;;;;;;;0.55;55.18;98033.59;5047781;28;20220;-71
2021/12/23 10:38:30;;;;;;;7.53;4.40;;;;;;;0.44;53.31;97991.88;5047812;28;20221;-76
2021/12/23 10:41:03;;;;;;;8.67;5.40;;;;;;;0.69;54.74;97987.00;5045764;28;20591;-76
2021/12/23 10:43:46;;;;;;;10.03;6.20;;;;;;;0.87;53.31;97980.34;5047323;28;20613;-74
2021/12/23 10:46:14;;;;;;;8.13;4.93;;;;;;;0.91;53.68;97979.53;5047443;28;20193;-72
2021/12/23 10:49:14;;;;;;;9.63;5.23;;;;;;;1.01;53.18;97973.66;5063012;28;20199;-68
2021/12/23 10:52:31;;;;;;;11.10;5.33;;;;;;;1.02;54.08;97957.50;5053562;28;20289;-70
2021/12/23 10:59:07;;;;;;;15.83;6.73;;;;;;;1.47;53.25;97965.38;5055520;28;20603;-71
2021/12/23 11:01:40;;;;;;;10.13;5.10;;;;;;;1.33;52.83;97967.88;5047334;28;20228;-75
2021/12/23 11:04:09;;;;;;;8.97;5.10;;;;;;;1.24;53.76;97967.81;5045653;28;20284;-74
2021/12/23 11:06:44;;;;;;;6.43;4.20;;;;;;;1.12;53.62;97959.25;5046477;28;20197;-72
2021/12/23 11:09:38;;;;;;;12.33;5.60;;;;;;;0.89;54.03;97953.19;5052542;28;20234;-71
2021/12/23 11:41:34;;;;;;;7.77;5.43;;;;;;;0.79;54.22;97911.47;5064876;28;20201;-73
2021/12/23 11:44:05;;;;;;;25.83;11.03;;;;;;;0.93;53.38;97909.84;5044895;28;20225;-70
2021/12/23 11:46:45;;;;;;;15.27;7.80;;;;;;;1.04;53.52;97898.00;5046153;28;20217;-69
2021/12/23 11:49:13;;;;;;;8.07;5.33;;;;;;;1.22;52.68;97908.28;5046219;28;20205;-68
2021/12/23 11:54:30;;;;;;;9.30;5.70;;;;;;;1.02;54.01;97903.94;5046648;28;20189;-71
2021/12/23 11:57:05;;;;;;;10.90;6.20;;;;;;;1.03;53.22;97911.59;5046143;28;20621;-70
2021/12/23 11:59:37;;;;;;;7.60;5.33;;;;;;;1.14;52.80;97904.84;5045774;28;20685;-70
2021/12/23 12:02:21;;;;;;;10.43;5.37;;;;;;;1.38;51.89;97899.84;5046180;28;20271;-73
2021/12/23 12:04:57;;;;;;;12.13;7.47;;;;;;;1.38;52.60;97865.84;5045901;28;20243;-70
2021/12/23 12:07:25;;;;;;;8.93;5.00;;;;;;;1.62;52.23;97899.97;5045624;28;20208;-71
2021/12/23 12:10:22;;;;;;;13.30;6.73;;;;;;;1.67;51.86;97905.06;5045567;28;20194;-69
2021/12/23 12:12:57;;;;;;;12.53;6.00;;;;;;;1.72;52.21;97907.63;5044479;28;20212;-71
2021/12/23 12:15:53;;;;;;;11.20;5.80;;;;;;;1.24;51.94;97904.06;5045505;28;20653;-72
2021/12/23 12:18:23;;;;;;;6.40;4.47;;;;;;;1.02;52.22;97909.03;5046540;28;20336;-68
2021/12/23 12:20:56;;;;;;;7.37;5.40;;;;;;;0.97;52.56;97909.00;5046213;28;20185;-67
2021/12/23 12:23:39;;;;;;;10.57;6.10;;;;;;;1.12;52.96;97906.56;5045981;28;20569;-70
2021/12/23 12:26:12;;;;;;;9.90;5.57;;;;;;;1.17;53.00;97883.63;5045947;28;20612;-69
2021/12/23 12:28:43;;;;;;;9.53;6.00;;;;;;;1.30;52.26;97887.94;5045664;28;20232;-69
2021/12/23 12:31:22;;;;;;;10.87;6.77;;;;;;;1.43;52.59;97887.13;5046394;28;20220;-72
2021/12/23 12:34:10;;;;;;;12.33;6.83;;;;;;;1.66;53.28;97880.38;5046005;28;20190;-66
2021/12/23 12:36:48;;;;;;;9.47;6.00;;;;;;;1.63;52.59;97876.13;5045389;28;20223;-66
2021/12/23 12:39:24;;;;;;;11.60;6.87;;;;;;;1.53;52.56;97874.41;5046562;28;20194;-67
2021/12/23 12:42:02;;;;;;;9.53;5.70;;;;;;;1.35;52.23;97874.34;5046250;28;20228;-70
2021/12/23 12:44:49;;;;;;;8.73;5.47;;;;;;;1.03;52.58;97870.78;5053931;28;20319;-66
2021/12/23 12:47:24;;;;;;;9.57;6.30;;;;;;;0.78;53.11;97874.91;5054196;28;20570;-69